Aviation Digital Data Service (ADDS)

Output produced by METARs form (0318 UTC 25 February 2021)
found at http://www.aviationweather.gov/metar/data/
 
KESN 250315Z AUTO 19009KT 10SM CLR 10/04 A2988 RMK AO2 T01030040